Time,TemperatureF,DewpointF,PressureIn,WindDirection,WindDirectionDegrees,WindSpeedMPH,WindSpeedGustMPH,Humidity,HourlyPrecipIn,Conditions,Clouds,dailyrainin,SoftwareType,DateUTC
2013-01-16 00:00:00,20.8,9.1,30.05,South,182,0.0,3.0,60,0.00,,,0.00,Wunderground v.1.15,2013-01-16 06:00:00,
2013-01-16 00:10:00,20.8,9.1,30.05,South,183,1.0,1.0,60,0.00,,,0.00,Wunderground v.1.15,2013-01-16 06:10:00,
2013-01-16 00:20:00,20.8,9.1,30.05,SSW,207,1.0,1.0,60,0.00,,,0.00,Wunderground v.1.15,2013-01-16 06:20:00,
2013-01-16 00:30:00,20.6,8.9,30.04,South,173,0.0,0.0,60,0.00,,,0.00,Wunderground v.1.15,2013-01-16 06:30:00,
2013-01-16 00:40:00,20.6,8.9,30.04,SSW,201,1.0,2.0,60,0.00,,,0.00,Wunderground v.1.15,2013-01-16 06:40:00,
2013-01-16 00:50:00,20.6,8.9,30.04,South,169,1.0,2.0,60,0.00,,,0.00,Wunderground v.1.15,2013-01-16 06:50:00,
2013-01-16 01:00:00,20.6,9.3,30.03,South,185,1.0,1.0,61,0.00,,,0.00,Wunderground v.1.15,2013-01-16 07:00:00,
2013-01-16 01:10:00,20.6,9.3,30.03,South,170,0.0,2.0,61,0.00,,,0.00,Wunderground v.1.15,2013-01-16 07:10:00,
2013-01-16 01:20:00,20.6,9.3,30.02,SW,235,1.0,2.0,61,0.00,,,0.00,Wunderground v.1.15,2013-01-16 07:20:00,
2013-01-16 01:30:00,20.8,9.5,30.02,South,170,1.0,1.0,61,0.00,,,0.00,Wunderground v.1.15,2013-01-16 07:30:00,
2013-01-16 01:40:00,20.6,9.3,30.02,SSW,201,0.0,2.0,61,0.00,,,0.00,Wunderground v.1.15,2013-01-16 07:40:00,
2013-01-16 01:50:00,20.6,9.3,30.01,SE,139,0.0,2.0,61,0.00,,,0.00,Wunderground v.1.15,2013-01-16 07:50:00,
2013-01-16 02:00:00,20.5,9.2,30.01,SSW,194,1.0,1.0,61,0.00,,,0.00,Wunderground v.1.15,2013-01-16 08:00:00,
2013-01-16 02:10:00,20.5,9.5,30.01,South,173,0.0,2.0,62,0.00,,,0.00,Wunderground v.1.15,2013-01-16 08:10:00,
2013-01-16 02:20:00,20.6,9.6,30.01,South,184,1.0,1.0,62,0.00,,,0.00,Wunderground v.1.15,2013-01-16 08:20:00,
2013-01-16 02:30:00,20.6,9.6,30.01,South,180,1.0,2.0,62,0.00,,,0.00,Wunderground v.1.15,2013-01-16 08:30:00,
2013-01-16 02:40:00,20.6,9.6,30.01,South,187,0.0,2.0,62,0.00,,,0.00,Wunderground v.1.15,2013-01-16 08:40:00,
2013-01-16 02:50:00,20.5,9.5,30.00,South,175,0.0,2.0,62,0.00,,,0.00,Wunderground v.1.15,2013-01-16 08:50:00,
2013-01-16 03:00:00,20.5,9.9,29.99,SSW,210,1.0,1.0,63,0.00,,,0.00,Wunderground v.1.15,2013-01-16 09:00:00,
2013-01-16 03:10:00,20.5,9.9,29.99,SSW,199,1.0,1.0,63,0.00,,,0.00,Wunderground v.1.15,2013-01-16 09:10:00,
2013-01-16 03:20:00,20.5,9.9,29.98,SSW,194,2.0,2.0,63,0.00,,,0.00,Wunderground v.1.15,2013-01-16 09:20:00,
2013-01-16 03:30:00,20.5,10.2,29.97,SSW,198,1.0,1.0,64,0.00,,,0.00,Wunderground v.1.15,2013-01-16 09:30:00,
2013-01-16 03:40:00,20.6,10.3,29.97,SW,215,2.0,2.0,64,0.00,,,0.00,Wunderground v.1.15,2013-01-16 09:40:00,
2013-01-16 03:50:00,20.6,10.3,29.97,SSE,163,1.0,1.0,64,0.00,,,0.00,Wunderground v.1.15,2013-01-16 09:50:00,
2013-01-16 04:00:00,20.6,10.3,29.95,South,182,1.0,1.0,64,0.00,,,0.00,Wunderground v.1.15,2013-01-16 10:00:00,
2013-01-16 04:10:00,20.8,10.9,29.95,South,188,1.0,3.0,65,0.00,,,0.00,Wunderground v.1.15,2013-01-16 10:10:00,
2013-01-16 04:20:00,21.0,11.1,29.94,SSW,211,1.0,2.0,65,0.00,,,0.00,Wunderground v.1.15,2013-01-16 10:20:00,
2013-01-16 04:30:00,21.1,11.5,29.93,South,188,1.0,2.0,66,0.00,,,0.00,Wunderground v.1.15,2013-01-16 10:30:00,
2013-01-16 04:40:00,21.4,11.8,29.93,WSW,238,1.0,2.0,66,0.00,,,0.00,Wunderground v.1.15,2013-01-16 10:40:00,
2013-01-16 04:50:00,21.6,12.0,29.93,SSW,200,1.0,1.0,66,0.00,,,0.00,Wunderground v.1.15,2013-01-16 10:50:00,
2013-01-16 05:00:00,21.9,12.3,29.92,SSW,203,1.0,1.0,66,0.00,,,0.00,Wunderground v.1.15,2013-01-16 11:00:00,
2013-01-16 05:10:00,22.2,12.6,29.92,SSW,206,2.0,5.0,66,0.00,,,0.00,Wunderground v.1.15,2013-01-16 11:10:00,
2013-01-16 05:20:00,22.4,12.8,29.91,SSW,207,2.0,2.0,66,0.00,,,0.00,Wunderground v.1.15,2013-01-16 11:20:00,
2013-01-16 05:30:00,22.7,13.0,29.90,South,185,2.0,3.0,66,0.00,,,0.00,Wunderground v.1.15,2013-01-16 11:30:00,
2013-01-16 05:40:00,22.7,13.0,29.90,SSE,164,1.0,2.0,66,0.00,,,0.00,Wunderground v.1.15,2013-01-16 11:40:00,
2013-01-16 05:50:00,22.9,13.2,29.89,SSW,201,1.0,2.0,66,0.00,,,0.00,Wunderground v.1.15,2013-01-16 11:50:00,
2013-01-16 06:00:00,23.0,13.3,29.88,SSW,213,1.0,3.0,66,0.00,,,0.00,Wunderground v.1.15,2013-01-16 12:00:00,
2013-01-16 06:10:00,23.2,13.5,29.88,SW,214,1.0,1.0,66,0.00,,,0.00,Wunderground v.1.15,2013-01-16 12:10:00,
2013-01-16 06:20:00,23.6,13.9,29.88,SW,232,2.0,3.0,66,0.00,,,0.00,Wunderground v.1.15,2013-01-16 12:20:00,
2013-01-16 06:30:00,23.9,14.2,29.90,SW,234,2.0,7.0,66,0.00,,,0.00,Wunderground v.1.15,2013-01-16 12:30:00,
2013-01-16 06:40:00,24.2,14.1,29.90,SSW,212,2.0,2.0,65,0.00,,,0.00,Wunderground v.1.15,2013-01-16 12:40:00,
2013-01-16 06:50:00,24.5,14.4,29.90,SW,215,2.0,5.0,65,0.00,,,0.00,Wunderground v.1.15,2013-01-16 12:50:00,
2013-01-16 07:00:00,24.8,14.3,29.89,SW,222,2.0,2.0,64,0.00,,,0.00,Wunderground v.1.15,2013-01-16 13:00:00,
2013-01-16 07:10:00,25.1,14.6,29.89,South,184,3.0,3.0,64,0.00,,,0.00,Wunderground v.1.15,2013-01-16 13:10:00,
2013-01-16 07:20:00,25.3,14.5,29.90,SSW,199,2.0,6.0,63,0.00,,,0.00,Wunderground v.1.15,2013-01-16 13:20:00,
2013-01-16 07:30:00,25.4,14.5,29.89,SW,216,3.0,3.0,63,0.00,,,0.00,Wunderground v.1.15,2013-01-16 13:30:00,
2013-01-16 07:40:00,25.6,14.4,29.89,SSW,213,3.0,3.0,62,0.00,,,0.00,Wunderground v.1.15,2013-01-16 13:40:00,
2013-01-16 07:50:00,25.7,14.5,29.88,SW,232,3.0,5.0,62,0.00,,,0.00,Wunderground v.1.15,2013-01-16 13:50:00,
2013-01-16 08:00:00,25.7,14.5,29.88,WSW,251,4.0,4.0,62,0.00,,,0.00,Wunderground v.1.15,2013-01-16 14:00:00,
2013-01-16 08:10:00,25.8,14.6,29.88,SW,217,2.0,2.0,62,0.00,,,0.00,Wunderground v.1.15,2013-01-16 14:10:00,
2013-01-16 08:20:00,26.1,15.2,29.89,WNW,282,2.0,2.0,63,0.00,,,0.00,Wunderground v.1.15,2013-01-16 14:20:00,
2013-01-16 08:30:00,26.4,15.5,29.90,WSW,257,2.0,2.0,63,0.00,,,0.00,Wunderground v.1.15,2013-01-16 14:30:00,
2013-01-16 08:40:00,26.7,15.4,29.90,WSW,258,2.0,2.0,62,0.00,,,0.00,Wunderground v.1.15,2013-01-16 14:40:00,
2013-01-16 08:50:00,27.2,15.9,29.90,SW,229,2.0,2.0,62,0.00,,,0.00,Wunderground v.1.15,2013-01-16 14:50:00,
2013-01-16 09:00:00,27.5,16.2,29.90,West,259,2.0,3.0,62,0.00,,,0.00,Wunderground v.1.15,2013-01-16 15:00:00,
2013-01-16 09:10:00,27.9,16.6,29.90,West,263,3.0,3.0,62,0.00,,,0.00,Wunderground v.1.15,2013-01-16 15:10:00,
2013-01-16 09:20:00,28.8,17.0,29.89,SSW,213,2.0,2.0,61,0.00,,,0.00,Wunderground v.1.15,2013-01-16 15:20:00,
2013-01-16 09:30:00,29.1,17.7,29.90,South,184,3.0,6.0,62,0.00,,,0.00,Wunderground v.1.15,2013-01-16 15:30:00,
2013-01-16 09:40:00,29.3,17.9,29.90,WSW,245,3.0,3.0,62,0.00,,,0.00,Wunderground v.1.15,2013-01-16 15:40:00,
2013-01-16 09:50:00,29.7,18.6,29.89,WSW,249,2.0,5.0,63,0.00,,,0.00,Wunderground v.1.15,2013-01-16 15:50:00,
2013-01-16 10:00:00,30.3,19.2,29.89,West,261,3.0,4.0,63,0.00,,,0.00,Wunderground v.1.15,2013-01-16 16:00:00,
2013-01-16 10:10:00,31.3,19.8,29.89,WNW,283,3.0,3.0,62,0.00,,,0.00,Wunderground v.1.15,2013-01-16 16:10:00,
2013-01-16 10:20:00,32.1,20.5,29.89,West,262,3.0,5.0,62,0.00,,,0.00,Wunderground v.1.15,2013-01-16 16:20:00,
2013-01-16 10:30:00,32.9,21.3,29.89,West,281,4.0,7.0,62,0.00,,,0.00,Wunderground v.1.15,2013-01-16 16:30:00,
2013-01-16 10:40:00,33.5,21.9,29.89,West,259,4.0,6.0,62,0.00,,,0.00,Wunderground v.1.15,2013-01-16 16:40:00,
2013-01-16 10:50:00,34.3,22.2,29.88,WSW,248,4.0,4.0,61,0.00,,,0.00,Wunderground v.1.15,2013-01-16 16:50:00,
2013-01-16 11:00:00,34.9,22.8,29.88,WSW,247,5.0,5.0,61,0.00,,,0.00,Wunderground v.1.15,2013-01-16 17:00:00,
2013-01-16 11:10:00,35.8,23.7,29.88,WSW,258,4.0,11.0,61,0.00,,,0.00,Wunderground v.1.15,2013-01-16 17:10:00,
2013-01-16 11:20:00,36.6,24.4,29.88,NW,320,4.0,4.0,61,0.00,,,0.00,Wunderground v.1.15,2013-01-16 17:20:00,
2013-01-16 11:30:00,37.3,25.1,29.88,WNW,298,4.0,4.0,61,0.00,,,0.00,Wunderground v.1.15,2013-01-16 17:30:00,
2013-01-16 11:40:00,38.0,25.7,29.88,WNW,300,2.0,4.0,61,0.00,,,0.00,Wunderground v.1.15,2013-01-16 17:40:00,
2013-01-16 11:50:00,38.6,26.3,29.88,WNW,293,3.0,3.0,61,0.00,,,0.00,Wunderground v.1.15,2013-01-16 17:50:00,
2013-01-16 12:00:00,38.5,26.6,29.88,WSW,246,3.0,3.0,62,0.00,,,0.00,Wunderground v.1.15,2013-01-16 18:00:00,
2013-01-16 12:10:00,38.3,26.4,29.88,WSW,254,2.0,2.0,62,0.00,,,0.00,Wunderground v.1.15,2013-01-16 18:10:00,
2013-01-16 12:20:00,39.8,27.0,29.86,SW,230,2.0,4.0,60,0.00,,,0.00,Wunderground v.1.15,2013-01-16 18:20:00,
2013-01-16 12:30:00,39.9,27.1,29.86,WNW,284,3.0,8.0,60,0.00,,,0.00,Wunderground v.1.15,2013-01-16 18:30:00,
2013-01-16 12:40:00,40.3,27.9,29.86,NW,312,4.0,4.0,61,0.00,,,0.00,Wunderground v.1.15,2013-01-16 18:40:00,
2013-01-16 12:50:00,41.3,28.4,29.86,West,263,4.0,4.0,60,0.00,,,0.00,Wunderground v.1.15,2013-01-16 18:50:00,
2013-01-16 13:00:00,41.9,29.0,29.86,West,261,3.0,4.0,60,0.00,,,0.00,Wunderground v.1.15,2013-01-16 19:00:00,
2013-01-16 13:10:00,42.6,29.3,29.86,WNW,293,3.0,3.0,59,0.00,,,0.00,Wunderground v.1.15,2013-01-16 19:10:00,
2013-01-16 13:20:00,43.1,30.1,29.86,WNW,287,4.0,5.0,60,0.00,,,0.00,Wunderground v.1.15,2013-01-16 19:20:00,
2013-01-16 13:30:00,44.1,30.3,29.86,NW,313,4.0,4.0,58,0.00,,,0.00,Wunderground v.1.15,2013-01-16 19:30:00,
2013-01-16 13:40:00,44.2,30.3,29.86,NW,304,4.0,5.0,58,0.00,,,0.00,Wunderground v.1.15,2013-01-16 19:40:00,
2013-01-16 13:50:00,44.8,30.5,29.87,NW,311,4.0,6.0,57,0.00,,,0.00,Wunderground v.1.15,2013-01-16 19:50:00,
2013-01-16 14:00:00,44.9,31.0,29.86,West,278,5.0,12.0,58,0.00,,,0.00,Wunderground v.1.15,2013-01-16 20:00:00,
2013-01-16 14:10:00,45.2,30.9,29.86,WSW,253,3.0,3.0,57,0.00,,,0.00,Wunderground v.1.15,2013-01-16 20:10:00,
2013-01-16 14:20:00,45.4,31.0,29.87,WNW,288,3.0,3.0,57,0.00,,,0.00,Wunderground v.1.15,2013-01-16 20:20:00,
2013-01-16 14:30:00,45.5,31.1,29.87,WSW,257,4.0,5.0,57,0.00,,,0.00,Wunderground v.1.15,2013-01-16 20:30:00,
2013-01-16 14:40:00,46.0,31.6,29.87,West,274,3.0,3.0,57,0.00,,,0.00,Wunderground v.1.15,2013-01-16 20:40:00,
2013-01-16 14:50:00,46.0,31.2,29.87,WSW,250,3.0,3.0,56,0.00,,,0.00,Wunderground v.1.15,2013-01-16 20:50:00,
2013-01-16 15:00:00,46.2,31.4,29.87,WNW,294,3.0,8.0,56,0.00,,,0.00,Wunderground v.1.15,2013-01-16 21:00:00,
2013-01-16 15:10:00,46.4,31.1,29.87,WNW,295,4.0,4.0,55,0.00,,,0.00,Wunderground v.1.15,2013-01-16 21:10:00,
2013-01-16 15:20:00,46.4,31.1,29.87,WNW,296,4.0,4.0,55,0.00,,,0.00,Wunderground v.1.15,2013-01-16 21:20:00,
2013-01-16 15:30:00,46.5,31.2,29.88,WSW,252,3.0,3.0,55,0.00,,,0.00,Wunderground v.1.15,2013-01-16 21:30:00,
2013-01-16 15:40:00,46.5,31.2,29.88,WSW,246,3.0,3.0,55,0.00,,,0.00,Wunderground v.1.15,2013-01-16 21:40:00,
2013-01-16 15:50:00,46.5,31.2,29.89,WNW,298,3.0,3.0,55,0.00,,,0.00,Wunderground v.1.15,2013-01-16 21:50:00,
2013-01-16 16:00:00,46.5,31.2,29.89,West,272,3.0,6.0,55,0.00,,,0.00,Wunderground v.1.15,2013-01-16 22:00:00,
2013-01-16 16:10:00,46.5,31.6,29.89,West,274,2.0,2.0,56,0.00,,,0.00,Wunderground v.1.15,2013-01-16 22:10:00,
2013-01-16 16:20:00,46.4,31.5,29.89,WSW,238,1.0,1.0,56,0.00,,,0.00,Wunderground v.1.15,2013-01-16 22:20:00,
2013-01-16 16:30:00,46.4,31.5,29.90,West,263,1.0,1.0,56,0.00,,,0.00,Wunderground v.1.15,2013-01-16 22:30:00,
2013-01-16 16:40:00,46.2,31.8,29.90,WSW,255,0.0,2.0,57,0.00,,,0.00,Wunderground v.1.15,2013-01-16 22:40:00,
2013-01-16 16:50:00,46.1,31.7,29.91,WSW,256,0.0,2.0,57,0.00,,,0.00,Wunderground v.1.15,2013-01-16 22:50:00,
2013-01-16 17:00:00,45.8,31.9,29.92,WSW,257,0.0,2.0,58,0.00,,,0.00,Wunderground v.1.15,2013-01-16 23:00:00,
2013-01-16 17:10:00,45.7,31.8,29.92,WSW,257,0.0,2.0,58,0.00,,,0.00,Wunderground v.1.15,2013-01-16 23:10:00,
2013-01-16 17:20:00,45.4,31.9,29.92,WSW,257,0.0,2.0,59,0.00,,,0.00,Wunderground v.1.15,2013-01-16 23:20:00,
2013-01-16 17:30:00,45.1,31.6,29.93,West,262,0.0,2.0,59,0.00,,,0.00,Wunderground v.1.15,2013-01-16 23:30:00,
2013-01-16 17:40:00,44.6,31.6,29.93,West,263,0.0,2.0,60,0.00,,,0.00,Wunderground v.1.15,2013-01-16 23:40:00,
2013-01-16 17:50:00,44.2,31.6,29.94,West,274,0.0,2.0,61,0.00,,,0.00,Wunderground v.1.15,2013-01-16 23:50:00,
2013-01-16 18:00:00,43.9,32.1,29.94,West,260,0.0,2.0,63,0.00,,,0.00,Wunderground v.1.15,2013-01-17 00:00:00,
2013-01-16 18:10:00,43.5,32.1,29.94,NW,317,0.0,2.0,64,0.00,,,0.00,Wunderground v.1.15,2013-01-17 00:10:00,
2013-01-16 18:20:00,43.2,31.8,29.95,NW,317,0.0,2.0,64,0.00,,,0.00,Wunderground v.1.15,2013-01-17 00:20:00,
2013-01-16 18:30:00,42.8,31.8,29.96,NW,318,0.0,2.0,65,0.00,,,0.00,Wunderground v.1.15,2013-01-17 00:30:00,
2013-01-16 18:40:00,42.5,31.9,29.96,NW,317,0.0,2.0,66,0.00,,,0.00,Wunderground v.1.15,2013-01-17 00:40:00,
2013-01-16 18:50:00,42.1,31.9,29.96,West,281,0.0,2.0,67,0.00,,,0.00,Wunderground v.1.15,2013-01-17 00:50:00,
2013-01-16 19:00:00,41.6,31.4,29.97,WSW,248,0.0,2.0,67,0.00,,,0.00,Wunderground v.1.15,2013-01-17 01:00:00,
2013-01-16 19:10:00,41.2,31.4,29.97,West,281,0.0,2.0,68,0.00,,,0.00,Wunderground v.1.15,2013-01-17 01:10:00,
2013-01-16 19:20:00,40.9,31.5,29.99,NW,306,1.0,2.0,69,0.00,,,0.00,Wunderground v.1.15,2013-01-17 01:20:00,
2013-01-16 19:30:00,40.8,31.8,29.99,WNW,295,1.0,2.0,70,0.00,,,0.00,Wunderground v.1.15,2013-01-17 01:30:00,
2013-01-16 19:40:00,40.8,32.1,29.99,WNW,300,3.0,4.0,71,0.00,,,0.00,Wunderground v.1.15,2013-01-17 01:40:00,
2013-01-16 19:50:00,40.9,31.9,30.00,NW,320,2.0,2.0,70,0.00,,,0.00,Wunderground v.1.15,2013-01-17 01:50:00,
2013-01-16 20:00:00,40.9,31.9,30.01,NNW,344,2.0,3.0,70,0.00,,,0.00,Wunderground v.1.15,2013-01-17 02:00:00,
2013-01-16 20:10:00,40.9,31.9,30.01,NW,323,2.0,3.0,70,0.00,,,0.00,Wunderground v.1.15,2013-01-17 02:10:00,
2013-01-16 20:20:00,40.8,31.8,30.02,NNW,328,1.0,2.0,70,0.00,,,0.00,Wunderground v.1.15,2013-01-17 02:20:00,
2013-01-16 20:30:00,40.5,31.5,30.02,NNW,331,2.0,2.0,70,0.00,,,0.00,Wunderground v.1.15,2013-01-17 02:30:00,
2013-01-16 20:40:00,40.1,31.4,30.02,NW,315,2.0,2.0,71,0.00,,,0.00,Wunderground v.1.15,2013-01-17 02:40:00,
2013-01-16 20:50:00,39.8,31.5,30.04,NW,313,1.0,1.0,72,0.00,,,0.00,Wunderground v.1.15,2013-01-17 02:50:00,
2013-01-16 21:00:00,39.2,30.9,30.04,NW,316,0.0,2.0,72,0.00,,,0.00,Wunderground v.1.15,2013-01-17 03:00:00,
2013-01-16 21:10:00,38.9,31.0,30.04,NNW,336,1.0,1.0,73,0.00,,,0.00,Wunderground v.1.15,2013-01-17 03:10:00,
2013-01-16 21:20:00,38.5,31.3,30.06,NNW,338,1.0,1.0,75,0.00,,,0.00,Wunderground v.1.15,2013-01-17 03:20:00,
2013-01-16 21:30:00,38.2,31.3,30.06,North,5,2.0,2.0,76,0.00,,,0.00,Wunderground v.1.15,2013-01-17 03:30:00,
2013-01-16 21:40:00,37.8,31.6,30.06,North,355,3.0,3.0,78,0.00,,,0.00,Wunderground v.1.15,2013-01-17 03:40:00,
2013-01-16 21:50:00,37.3,31.4,30.07,North,5,3.0,3.0,79,0.00,,,0.00,Wunderground v.1.15,2013-01-17 03:50:00,
2013-01-16 22:00:00,36.6,31.0,30.08,NNW,346,3.0,4.0,80,0.00,,,0.00,Wunderground v.1.15,2013-01-17 04:00:00,
2013-01-16 22:10:00,35.9,30.3,30.08,NNW,346,1.0,2.0,80,0.00,,,0.00,Wunderground v.1.15,2013-01-17 04:10:00,
2013-01-16 22:20:00,35.5,29.9,30.09,NNW,346,0.0,2.0,80,0.00,,,0.00,Wunderground v.1.15,2013-01-17 04:20:00,
2013-01-16 22:30:00,34.9,29.4,30.10,North,5,1.0,1.0,80,0.00,,,0.00,Wunderground v.1.15,2013-01-17 04:30:00,
2013-01-16 22:40:00,34.6,29.4,30.10,North,5,1.0,3.0,81,0.00,,,0.00,Wunderground v.1.15,2013-01-17 04:40:00,
2013-01-16 22:50:00,34.3,29.4,30.10,NNW,334,3.0,3.0,82,0.00,,,0.00,Wunderground v.1.15,2013-01-17 04:50:00,
2013-01-16 23:10:00,33.2,28.3,30.12,NNE,15,3.0,5.0,82,0.00,,,0.00,Wunderground v.1.15,2013-01-17 05:10:00,
2013-01-16 23:20:00,32.7,27.8,30.12,NW,321,3.0,4.0,82,0.00,,,0.00,Wunderground v.1.15,2013-01-17 05:20:00,
2013-01-16 23:30:00,32.5,27.6,30.13,NW,319,3.0,3.0,82,0.00,,,0.00,Wunderground v.1.15,2013-01-17 05:30:00,
2013-01-16 23:40:00,32.4,27.5,30.13,NNE,28,1.0,3.0,82,0.00,,,0.00,Wunderground v.1.15,2013-01-17 05:40:00,
2013-01-16 23:50:00,32.4,27.5,30.15,NNE,24,1.0,3.0,82,0.00,,,0.00,Wunderground v.1.15,2013-01-17 05:50:00,